createdAt,value
2023-02-11T00:01:38.401Z,56.55
2023-02-11T00:04:08.246Z,59.08
2023-02-11T00:06:37.573Z,62.13
2023-02-11T00:09:06.840Z,51.10
2023-02-11T00:11:35.650Z,57.05
2023-02-11T00:14:05.886Z,70.15
2023-02-11T00:16:35.934Z,51.90
2023-02-11T00:19:05.669Z,60.35
2023-02-11T00:21:35.170Z,57.40
2023-02-11T00:24:03.507Z,49.63
2023-02-11T00:26:33.859Z,51.97
2023-02-11T00:29:02.887Z,61.55
2023-02-11T00:31:33.664Z,58.70
2023-02-11T00:34:03.384Z,45.70
2023-02-11T00:36:32.524Z,54.00
2023-02-11T00:39:02.017Z,46.90
2023-02-11T00:41:30.782Z,61.80
2023-02-11T00:44:01.010Z,44.35
2023-02-11T00:46:30.193Z,53.00
2023-02-11T00:48:58.787Z,48.35
2023-02-11T00:51:29.640Z,49.47
2023-02-11T00:53:57.949Z,51.60
2023-02-11T00:56:26.693Z,45.47
2023-02-11T00:58:55.173Z,43.22
2023-02-11T01:01:23.513Z,46.72
2023-02-11T01:03:52.045Z,49.47
2023-02-11T01:06:20.384Z,40.42
2023-02-11T01:08:50.210Z,49.78
2023-02-11T01:11:20.633Z,49.17
2023-02-11T01:13:50.176Z,44.83
2023-02-11T01:16:19.860Z,40.55
2023-02-11T01:18:48.661Z,41.05
2023-02-11T01:21:19.465Z,48.40
2023-02-11T01:23:49.276Z,49.83
2023-02-11T01:26:17.685Z,43.53
2023-02-11T01:28:46.285Z,39.10
2023-02-11T01:31:14.963Z,41.58
2023-02-11T01:33:43.296Z,47.78
2023-02-11T01:36:13.124Z,44.58
2023-02-11T01:38:41.967Z,43.95
2023-02-11T01:41:13.479Z,39.80
2023-02-11T01:43:46.646Z,36.55
2023-02-11T01:46:36.873Z,39.05
2023-02-11T01:49:08.576Z,40.08
2023-02-11T01:51:41.543Z,40.63
2023-02-11T01:54:30.765Z,37.35
2023-02-11T01:57:19.560Z,38.38
2023-02-11T01:59:53.597Z,42.92
2023-02-11T02:02:27.750Z,37.33
2023-02-11T02:05:02.016Z,34.25
2023-02-11T02:07:35.701Z,33.10
2023-02-11T02:10:08.880Z,39.40
2023-02-11T02:12:39.332Z,38.67
2023-02-11T02:15:26.542Z,40.88
2023-02-11T02:18:06.115Z,37.63
2023-02-11T02:21:15.843Z,39.13
2023-02-11T02:24:14.105Z,40.20
2023-02-11T02:27:04.461Z,40.25
2023-02-11T02:30:27.001Z,49.30
2023-02-11T02:33:21.717Z,42.72
2023-02-11T02:35:59.624Z,38.25
2023-02-11T02:38:32.956Z,41.63
2023-02-11T02:41:05.347Z,42.38
2023-02-11T02:43:35.103Z,45.70
2023-02-11T02:46:18.862Z,36.20
2023-02-11T02:48:50.685Z,40.33
2023-02-11T02:51:50.448Z,38.28
2023-02-11T02:54:43.577Z,50.30
2023-02-11T02:57:25.943Z,42.80
2023-02-11T03:00:08.862Z,42.95
2023-02-11T03:02:43.903Z,39.25
2023-02-11T03:05:18.561Z,38.58
2023-02-11T03:07:53.476Z,34.47
2023-02-11T03:10:28.068Z,40.42
2023-02-11T03:12:57.864Z,53.20
2023-02-11T03:15:29.541Z,45.63
2023-02-11T03:18:01.548Z,35.20
2023-02-11T03:20:34.305Z,45.55
2023-02-11T03:23:11.703Z,38.22
2023-02-11T03:25:59.406Z,38.33
2023-02-11T03:28:33.580Z,40.80
2023-02-11T03:31:11.675Z,36.90
2023-02-11T03:33:47.908Z,42.30
2023-02-11T03:36:32.695Z,37.38
2023-02-11T03:39:03.043Z,37.65
2023-02-11T03:41:32.950Z,34.35
2023-02-11T03:44:02.698Z,44.15
2023-02-11T03:46:34.800Z,39.85
2023-02-11T03:49:06.081Z,34.28
2023-02-11T03:51:43.028Z,38.80
2023-02-11T03:54:25.014Z,42.88
2023-02-11T03:56:55.747Z,46.38
2023-02-11T03:59:24.226Z,40.47
2023-02-11T04:01:52.724Z,37.20
2023-02-11T04:04:21.693Z,38.70
2023-02-11T04:06:51.365Z,36.83
2023-02-11T04:09:21.724Z,44.67
2023-02-11T04:11:50.393Z,38.67
2023-02-11T04:14:18.674Z,37.08
2023-02-11T04:16:51.674Z,41.88
2023-02-11T04:19:19.962Z,36.92
2023-02-11T04:21:50.505Z,38.17
2023-02-11T04:24:19.014Z,32.65
2023-02-11T04:26:50.140Z,36.75
2023-02-11T04:29:19.058Z,36.92
2023-02-11T04:31:47.621Z,42.22
2023-02-11T04:34:16.398Z,41.35
2023-02-11T04:36:44.575Z,37.35
2023-02-11T04:39:14.352Z,43.15
2023-02-11T04:41:42.862Z,37.47
2023-02-11T04:44:11.398Z,43.15
2023-02-11T04:46:39.690Z,41.38
2023-02-11T04:49:07.971Z,39.88
2023-02-11T04:51:36.256Z,40.42
2023-02-11T04:54:04.662Z,48.85
2023-02-11T04:56:34.481Z,45.50
2023-02-11T04:59:02.764Z,37.60
2023-02-11T05:01:31.336Z,45.35
2023-02-11T05:03:59.654Z,47.72
2023-02-11T05:06:27.996Z,45.22
2023-02-11T05:08:58.652Z,42.55
2023-02-11T05:11:27.930Z,44.78
2023-02-11T05:13:57.801Z,49.10
2023-02-11T05:16:26.098Z,42.95
2023-02-11T05:18:55.781Z,47.95
2023-02-11T05:21:24.306Z,47.70
2023-02-11T05:23:52.781Z,45.10
2023-02-11T05:26:21.107Z,51.38
2023-02-11T05:28:49.603Z,45.97
2023-02-11T05:31:19.436Z,48.97
2023-02-11T05:33:48.106Z,43.85
2023-02-11T05:36:16.951Z,47.75
2023-02-11T05:38:45.321Z,44.50
2023-02-11T05:41:14.080Z,48.80
2023-02-11T05:43:42.396Z,41.78
2023-02-11T05:46:10.692Z,47.25
2023-02-11T05:48:40.493Z,45.63
2023-02-11T05:51:08.828Z,44.75
2023-02-11T05:53:37.303Z,50.67
2023-02-11T05:56:06.033Z,45.00
2023-02-11T05:58:34.611Z,44.13
2023-02-11T06:01:02.930Z,44.58
2023-02-11T06:03:36.734Z,57.28
2023-02-11T06:06:12.937Z,57.22
2023-02-11T06:08:41.692Z,44.55
2023-02-11T06:11:15.380Z,45.17
2023-02-11T06:13:44.009Z,50.38
2023-02-11T06:16:15.351Z,43.38
2023-02-11T06:18:44.485Z,41.35
2023-02-11T06:21:14.615Z,45.63
2023-02-11T06:23:43.603Z,54.28
2023-02-11T06:26:18.462Z,59.85
2023-02-11T06:28:46.869Z,46.88
2023-02-11T06:31:16.218Z,52.05
2023-02-11T06:33:45.857Z,48.55
2023-02-11T06:36:17.481Z,56.83
2023-02-11T06:38:46.091Z,56.00
2023-02-11T06:41:15.737Z,52.67
2023-02-11T06:43:44.561Z,53.20
2023-02-11T06:46:13.454Z,52.15
2023-02-11T06:48:45.245Z,53.42
2023-02-11T06:51:16.358Z,51.88
2023-02-11T06:53:46.518Z,52.10
2023-02-11T06:56:19.455Z,47.20
2023-02-11T06:58:48.375Z,56.80
2023-02-11T07:01:20.808Z,50.25
2023-02-11T07:03:49.163Z,52.60
2023-02-11T07:06:21.048Z,58.65
2023-02-11T07:08:50.066Z,55.00
2023-02-11T07:11:20.641Z,54.83
2023-02-11T07:13:56.675Z,65.07
2023-02-11T07:16:25.400Z,53.33
2023-02-11T07:18:54.361Z,64.00
2023-02-11T07:21:25.422Z,53.25
2023-02-11T07:23:54.150Z,49.67
2023-02-11T07:26:25.864Z,69.68
2023-02-11T07:28:55.730Z,57.30
2023-02-11T07:31:26.647Z,58.88
2023-02-11T07:34:00.387Z,50.60
2023-02-11T07:36:33.425Z,65.97
2023-02-11T07:39:02.251Z,58.03
2023-02-11T07:41:37.702Z,61.20
2023-02-11T07:44:06.787Z,56.85
2023-02-11T07:46:35.749Z,67.18
2023-02-11T07:49:04.654Z,65.88
2023-02-11T07:51:34.400Z,58.65
2023-02-11T07:54:10.985Z,50.63
2023-02-11T07:56:39.410Z,68.70
2023-02-11T07:59:07.821Z,63.10
2023-02-11T08:01:36.643Z,65.20
2023-02-11T08:04:05.674Z,63.83
2023-02-11T08:06:36.957Z,67.10
2023-02-11T08:09:07.213Z,66.30
2023-02-11T08:11:38.968Z,66.53
2023-02-11T08:14:07.231Z,65.32
2023-02-11T08:16:38.806Z,69.90
2023-02-11T08:19:12.075Z,63.50
2023-02-11T08:21:44.070Z,61.92
2023-02-11T08:24:13.008Z,59.60
2023-02-11T08:26:43.629Z,69.22
2023-02-11T08:29:14.508Z,66.57
2023-02-11T08:31:45.321Z,72.63
2023-02-11T08:34:20.638Z,68.53
2023-02-11T08:36:50.603Z,73.25
2023-02-11T08:39:21.388Z,68.05
2023-02-11T08:41:51.372Z,66.63
2023-02-11T08:44:24.060Z,67.13
2023-02-11T08:46:53.158Z,73.38
2023-02-11T08:49:24.302Z,62.70
2023-02-11T08:51:56.320Z,64.35
2023-02-11T08:54:24.616Z,61.13
2023-02-11T08:56:56.613Z,67.70
2023-02-11T08:59:29.772Z,66.72
2023-02-11T09:01:58.156Z,70.10
2023-02-11T09:04:31.051Z,60.88
2023-02-11T09:07:00.745Z,68.82
2023-02-11T09:09:32.502Z,64.85
2023-02-11T09:12:01.459Z,67.60
2023-02-11T09:14:36.364Z,72.80
2023-02-11T09:17:07.968Z,64.88
2023-02-11T09:19:36.643Z,74.50
2023-02-11T09:22:06.512Z,58.70
2023-02-11T09:24:34.945Z,63.35
2023-02-11T09:27:04.915Z,64.10
2023-02-11T09:29:33.239Z,62.83
2023-02-11T09:32:01.656Z,73.07
2023-02-11T09:34:30.641Z,70.75
2023-02-11T09:36:58.971Z,71.18
2023-02-11T09:39:34.127Z,56.10
2023-02-11T09:42:38.084Z,65.07
2023-02-11T09:45:12.845Z,65.78
2023-02-11T09:47:48.805Z,61.38
2023-02-11T09:50:28.261Z,64.70
2023-02-11T09:53:01.321Z,63.38
2023-02-11T09:55:37.960Z,63.15
2023-02-11T09:58:12.540Z,61.40
2023-02-11T10:00:48.595Z,64.85
2023-02-11T10:03:51.496Z,67.13
2023-02-11T10:06:42.604Z,60.80
2023-02-11T10:09:36.756Z,59.53
2023-02-11T10:12:20.157Z,65.03
2023-02-11T10:15:17.042Z,57.72
2023-02-11T10:18:00.012Z,61.42
2023-02-11T10:20:35.797Z,59.95
2023-02-11T10:23:14.250Z,65.85
2023-02-11T10:25:48.181Z,59.28
2023-02-11T10:28:20.495Z,58.90
2023-02-11T10:30:58.650Z,67.90
2023-02-11T10:33:33.796Z,70.22
2023-02-11T10:36:02.489Z,72.95
2023-02-11T10:38:30.852Z,82.45
2023-02-11T10:40:59.134Z,78.18
2023-02-11T10:43:32.315Z,65.55
2023-02-11T10:46:05.610Z,84.80
2023-02-11T10:48:54.706Z,78.15
2023-02-11T10:51:24.522Z,78.32
2023-02-11T10:54:21.412Z,81.20
2023-02-11T10:56:53.486Z,80.78
2023-02-11T10:59:28.929Z,88.55
2023-02-11T11:02:01.094Z,73.68
2023-02-11T11:04:45.111Z,70.80
2023-02-11T11:07:21.103Z,78.60
2023-02-11T11:09:55.098Z,84.00
2023-02-11T11:12:30.344Z,82.40
2023-02-11T11:15:14.344Z,76.88
2023-02-11T11:17:42.597Z,98.75
2023-02-11T11:20:22.580Z,86.10
2023-02-11T11:22:52.969Z,92.68
2023-02-11T11:25:27.810Z,88.75
2023-02-11T11:27:59.261Z,87.93
2023-02-11T11:30:35.467Z,79.15
2023-02-11T11:33:03.925Z,84.13
2023-02-11T11:35:34.108Z,90.95
2023-02-11T11:38:06.127Z,93.38
2023-02-11T11:40:41.078Z,100.05
2023-02-11T11:43:23.133Z,101.32
2023-02-11T11:45:57.749Z,88.57
2023-02-11T11:48:34.181Z,94.57
2023-02-11T11:51:05.917Z,91.40
2023-02-11T11:53:42.150Z,91.93
2023-02-11T11:56:15.341Z,88.85
2023-02-11T11:58:44.480Z,98.88
2023-02-11T12:01:26.505Z,95.78
2023-02-11T12:04:24.630Z,101.68
2023-02-11T12:07:10.787Z,86.07
2023-02-11T12:09:46.822Z,82.40
2023-02-11T12:12:36.243Z,83.35
2023-02-11T12:15:14.823Z,90.13
2023-02-11T12:18:02.888Z,84.90
2023-02-11T12:20:44.850Z,78.93
2023-02-11T12:23:33.895Z,94.10
2023-02-11T12:26:08.710Z,82.85
2023-02-11T12:28:44.943Z,93.03
2023-02-11T12:31:28.100Z,84.70
2023-02-11T12:34:19.063Z,85.65
2023-02-11T12:37:08.165Z,86.13
2023-02-11T12:39:45.436Z,84.55
2023-02-11T12:43:06.206Z,78.88
2023-02-11T12:45:48.162Z,98.50
2023-02-11T12:48:49.052Z,86.28
2023-02-11T12:51:28.424Z,96.82
2023-02-11T12:54:18.764Z,100.45
2023-02-11T12:56:53.439Z,98.53
2023-02-11T12:59:35.796Z,98.22
2023-02-11T13:02:13.975Z,96.97
2023-02-11T13:04:49.299Z,93.47
2023-02-11T13:07:24.149Z,106.05
2023-02-11T13:09:58.411Z,91.18
2023-02-11T13:12:45.694Z,102.28
2023-02-11T13:15:27.128Z,99.03
2023-02-11T13:18:01.405Z,92.43
2023-02-11T13:20:43.946Z,101.20
2023-02-11T13:23:25.076Z,91.15
2023-02-11T13:26:04.142Z,98.70
2023-02-11T13:28:46.731Z,95.88
2023-02-11T13:31:16.832Z,101.32
2023-02-11T13:33:46.050Z,103.05
2023-02-11T13:36:21.369Z,89.53
2023-02-11T13:39:01.122Z,94.18
2023-02-11T13:41:40.482Z,102.38
2023-02-11T13:44:25.655Z,95.07
2023-02-11T13:47:03.328Z,83.65
2023-02-11T13:49:35.499Z,81.68
2023-02-11T13:52:19.404Z,88.75
2023-02-11T13:54:52.887Z,82.53
2023-02-11T13:57:32.534Z,90.82
2023-02-11T14:00:02.913Z,82.55
2023-02-11T14:02:52.439Z,84.57
2023-02-11T14:05:49.675Z,78.90
2023-02-11T14:08:41.209Z,83.95
2023-02-11T14:11:51.066Z,78.60
2023-02-11T14:14:25.093Z,71.72
2023-02-11T14:17:21.555Z,89.90
2023-02-11T14:19:50.689Z,77.53
2023-02-11T14:22:26.297Z,80.57
2023-02-11T14:25:00.874Z,82.15
2023-02-11T14:27:42.129Z,85.03
2023-02-11T14:30:36.994Z,83.80
2023-02-11T14:33:38.100Z,83.18
2023-02-11T14:36:19.242Z,78.38
2023-02-11T14:39:03.999Z,85.88
2023-02-11T14:41:36.893Z,81.07
2023-02-11T14:44:14.604Z,82.07
2023-02-11T14:46:46.819Z,79.30
2023-02-11T14:49:25.179Z,78.28
2023-02-11T14:51:56.582Z,74.95
2023-02-11T14:54:28.435Z,75.32
2023-02-11T14:57:13.784Z,78.60
2023-02-11T14:59:59.126Z,71.68
2023-02-11T15:02:32.150Z,71.50
2023-02-11T15:05:22.547Z,72.80
2023-02-11T15:07:53.858Z,71.80
2023-02-11T15:10:31.164Z,64.93
2023-02-11T15:13:02.034Z,69.00
2023-02-11T15:15:36.035Z,64.18
2023-02-11T15:18:05.484Z,67.03
2023-02-11T15:20:35.971Z,72.55
2023-02-11T15:23:09.153Z,72.03
2023-02-11T15:25:53.043Z,60.17
2023-02-11T15:28:25.608Z,61.40
2023-02-11T15:31:07.332Z,62.88
2023-02-11T15:33:35.821Z,68.07
2023-02-11T15:36:04.775Z,67.30
2023-02-11T15:38:33.534Z,53.20
2023-02-11T15:41:03.714Z,61.28
2023-02-11T15:43:46.091Z,58.00
2023-02-11T15:46:18.520Z,55.63
2023-02-11T15:48:50.212Z,54.80
2023-02-11T15:51:25.323Z,64.60
2023-02-11T15:53:59.630Z,57.10
2023-02-11T15:56:33.179Z,46.25
2023-02-11T15:59:10.466Z,63.33
2023-02-11T16:01:40.993Z,55.13
2023-02-11T16:04:17.781Z,58.88
2023-02-11T16:06:48.205Z,59.30
2023-02-11T16:09:32.897Z,51.92
2023-02-11T16:12:04.790Z,53.17
2023-02-11T16:14:37.195Z,54.38
2023-02-11T16:17:09.329Z,52.72
2023-02-11T16:19:44.211Z,46.63
2023-02-11T16:22:19.433Z,49.90
2023-02-11T16:24:51.160Z,46.90
2023-02-11T16:27:25.468Z,49.40
2023-02-11T16:29:54.307Z,52.75
2023-02-11T16:32:25.584Z,47.65
2023-02-11T16:34:57.956Z,46.28
2023-02-11T16:37:26.763Z,44.63
2023-02-11T16:39:56.620Z,46.17
2023-02-11T16:42:25.377Z,47.30
2023-02-11T16:44:53.785Z,41.75
2023-02-11T16:47:26.162Z,40.28
2023-02-11T16:49:55.515Z,46.35
2023-02-11T16:52:24.944Z,50.60
2023-02-11T16:54:53.587Z,39.65
2023-02-11T16:57:24.316Z,48.17
2023-02-11T16:59:53.017Z,49.65
2023-02-11T17:02:27.113Z,42.63
2023-02-11T17:04:56.525Z,44.67
2023-02-11T17:07:24.888Z,46.15
2023-02-11T17:09:53.327Z,44.72
2023-02-11T17:12:22.057Z,47.22
2023-02-11T17:14:50.233Z,44.65
2023-02-11T17:17:18.679Z,48.33
2023-02-11T17:19:48.475Z,51.40
2023-02-11T17:22:16.710Z,40.83
2023-02-11T17:24:44.901Z,40.20
2023-02-11T17:27:14.022Z,40.42
2023-02-11T17:29:44.640Z,46.05
2023-02-11T17:32:13.048Z,46.70
2023-02-11T17:34:41.355Z,40.92
2023-02-11T17:37:11.198Z,34.25
2023-02-11T17:39:40.665Z,43.30
2023-02-11T17:42:09.303Z,43.17
2023-02-11T17:44:37.627Z,43.97
2023-02-11T17:47:06.005Z,45.15
2023-02-11T17:49:34.259Z,47.55
2023-02-11T17:52:02.660Z,50.10
2023-02-11T17:54:32.325Z,41.17
2023-02-11T17:57:00.590Z,42.03
2023-02-11T17:59:35.274Z,42.33
2023-02-11T18:02:04.422Z,44.67
2023-02-11T18:04:33.498Z,43.63
2023-02-11T18:07:01.937Z,38.92
2023-02-11T18:09:31.656Z,37.97
2023-02-11T18:12:00.536Z,42.42
2023-02-11T18:14:28.824Z,38.80
2023-02-11T18:16:57.212Z,42.67
2023-02-11T18:19:25.861Z,33.28
2023-02-11T18:21:54.362Z,42.38
2023-02-11T18:24:22.689Z,34.50
2023-02-11T18:27:09.193Z,37.58
2023-02-11T18:29:37.953Z,30.80
2023-02-11T18:32:06.907Z,39.40
2023-02-11T18:34:35.318Z,34.33
2023-02-11T18:37:03.548Z,39.15
2023-02-11T18:39:32.206Z,36.03
2023-02-11T18:42:01.924Z,34.55
2023-02-11T18:44:31.299Z,39.28
2023-02-11T18:46:59.575Z,42.45
2023-02-11T18:49:28.166Z,32.95
2023-02-11T18:51:58.650Z,37.33
2023-02-11T18:54:26.988Z,31.05
2023-02-11T18:56:55.295Z,30.15
2023-02-11T18:59:25.106Z,35.13
2023-02-11T19:01:53.390Z,38.67
2023-02-11T19:04:25.176Z,35.65
2023-02-11T19:06:53.505Z,32.55
2023-02-11T19:09:21.974Z,30.77
2023-02-11T19:11:51.165Z,34.00
2023-02-11T19:14:22.951Z,30.63
2023-02-11T19:16:54.543Z,30.77
2023-02-11T19:19:25.092Z,31.85
2023-02-11T19:21:53.661Z,34.08
2023-02-11T19:24:24.075Z,29.38
2023-02-11T19:26:54.538Z,34.60
2023-02-11T19:29:22.921Z,34.10
2023-02-11T19:31:54.070Z,34.70
2023-02-11T19:34:23.181Z,36.92
2023-02-11T19:36:56.160Z,46.03
2023-02-11T19:39:25.019Z,29.48
2023-02-11T19:41:53.589Z,29.25
2023-02-11T19:44:22.829Z,37.42
2023-02-11T19:46:53.422Z,34.83
2023-02-11T19:49:26.003Z,35.17
2023-02-11T19:51:57.530Z,32.53
2023-02-11T19:54:28.776Z,35.75
2023-02-11T19:56:58.694Z,27.80
2023-02-11T19:59:27.098Z,25.58
2023-02-11T20:01:57.739Z,29.13
2023-02-11T20:04:26.144Z,26.25
2023-02-11T20:06:54.677Z,35.75
2023-02-11T20:09:23.052Z,31.85
2023-02-11T20:11:51.824Z,38.08
2023-02-11T20:14:20.404Z,32.60
2023-02-11T20:16:50.100Z,27.77
2023-02-11T20:19:22.056Z,24.10
2023-02-11T20:21:53.180Z,34.80
2023-02-11T20:24:22.155Z,30.38
2023-02-11T20:26:55.373Z,31.20
2023-02-11T20:29:25.259Z,30.42
2023-02-11T20:31:53.760Z,29.85
2023-02-11T20:34:25.379Z,31.30
2023-02-11T20:36:54.308Z,33.03
2023-02-11T20:39:23.687Z,28.38
2023-02-11T20:41:53.899Z,32.13
2023-02-11T20:44:23.009Z,37.58
2023-02-11T20:46:53.935Z,30.77
2023-02-11T20:49:25.487Z,33.85
2023-02-11T20:51:54.531Z,35.80
2023-02-11T20:54:24.318Z,32.22
2023-02-11T20:56:54.020Z,30.65
2023-02-11T20:59:23.252Z,24.65
2023-02-11T21:01:55.407Z,27.48
2023-02-11T21:04:28.008Z,30.25
2023-02-11T21:06:58.859Z,32.08
2023-02-11T21:09:29.699Z,31.08
2023-02-11T21:11:58.352Z,34.35
2023-02-11T21:14:27.807Z,30.90
2023-02-11T21:16:56.548Z,32.65
2023-02-11T21:19:26.481Z,29.23
2023-02-11T21:21:57.421Z,21.85
2023-02-11T21:24:25.793Z,20.02
2023-02-11T21:26:54.093Z,15.27
2023-02-11T21:29:22.619Z,15.35
2023-02-11T21:31:51.563Z,10.45
2023-02-11T21:34:21.239Z,13.88
2023-02-11T21:36:52.339Z,10.73
2023-02-11T21:39:21.215Z,6.68
2023-02-11T21:41:50.251Z,6.32
2023-02-11T21:44:18.959Z,14.60
2023-02-11T21:46:47.862Z,10.95
2023-02-11T21:49:16.475Z,9.50
2023-02-11T21:51:44.845Z,11.48
2023-02-11T21:54:14.441Z,12.88
2023-02-11T21:56:42.713Z,6.72
2023-02-11T21:59:13.639Z,9.70
2023-02-11T22:01:42.075Z,8.48
2023-02-11T22:04:11.143Z,8.32
2023-02-11T22:06:40.329Z,6.55
2023-02-11T22:09:10.860Z,4.90
2023-02-11T22:11:41.413Z,6.70
2023-02-11T22:14:09.865Z,8.38
2023-02-11T22:16:38.466Z,8.48
2023-02-11T22:19:07.657Z,7.22
2023-02-11T22:21:36.643Z,8.27
2023-02-11T22:24:05.450Z,16.65
2023-02-11T22:26:34.021Z,12.48
2023-02-11T22:29:03.964Z,8.27
2023-02-11T22:31:34.178Z,8.45
2023-02-11T22:34:04.046Z,12.50
2023-02-11T22:36:35.290Z,11.32
2023-02-11T22:39:05.040Z,6.78
2023-02-11T22:41:33.713Z,9.25
2023-02-11T22:44:03.655Z,7.38
2023-02-11T22:46:32.116Z,6.47
2023-02-11T22:49:00.677Z,6.00
2023-02-11T22:51:30.601Z,5.18
2023-02-11T22:54:01.032Z,10.00
2023-02-11T22:56:31.034Z,12.90
2023-02-11T22:59:00.564Z,4.20
2023-02-11T23:01:31.540Z,8.77
2023-02-11T23:04:01.511Z,4.82
2023-02-11T23:06:29.846Z,7.65
2023-02-11T23:08:58.358Z,5.38
2023-02-11T23:11:28.860Z,6.70
2023-02-11T23:13:57.567Z,4.30
2023-02-11T23:16:28.418Z,7.00
2023-02-11T23:19:01.017Z,10.32
2023-02-11T23:21:33.344Z,6.63
2023-02-11T23:24:04.051Z,6.75
2023-02-11T23:26:33.823Z,5.72
2023-02-11T23:29:02.239Z,7.10
2023-02-11T23:31:34.754Z,6.55
2023-02-11T23:34:04.727Z,4.30
2023-02-11T23:36:36.432Z,3.50
2023-02-11T23:39:05.848Z,4.68
2023-02-11T23:41:34.297Z,5.22
2023-02-11T23:44:02.639Z,3.55
2023-02-11T23:46:31.052Z,3.70
2023-02-11T23:48:59.699Z,4.28
2023-02-11T23:51:29.774Z,5.38
2023-02-11T23:53:58.335Z,9.70
2023-02-11T23:56:28.931Z,7.07
2023-02-11T23:58:59.168Z,3.55
